CheckWX is a tool to help pilots better visualize weather data.  It is not intended as a substitute for an official pre-flight weather briefing.

12:31:01 UTC

6B9 METAR
Skaneateles Aero Drome Airport
Skaneateles, New York, USA
Current

16 mins ago

K6B9 131215Z AUTO 18010G18KT 150V220 10SM CLR 00/M04 A3025 RMK AO2
Observed
Dec-13 @ 12:15 UTC
Wind
  • 180° at 10 KTS
  • Gusting to 18 KTS
Visibility
10 SM
Flight Rules
VFR
Cloud Levels
  • Clear skies
Temperature
C / 32°F
Dewpoint
-4°C / 25°F
Humidity
75%
Altimeter
30.25" Hg
Pressure
1024.42 hPa
Previous

36 mins ago

K6B9 131155Z AUTO 20012G25KT 170V230 10SM CLR 00/M04 A3025 RMK AO2
Observed
Dec-13 @ 11:55 UTC
Wind
  • 200° at 12 KTS
  • Gusting to 25 KTS
Visibility
10 SM
Flight Rules
VFR
Cloud Levels
  • Clear skies
Temperature
C / 32°F
Dewpoint
-4°C / 25°F
Humidity
75%
Altimeter
30.25" Hg
Pressure
1024.42 hPa
Previous

56 mins ago

K6B9 131135Z AUTO 19012G22KT 150V230 10SM CLR 00/M04 A3026 RMK AO2
Observed
Dec-13 @ 11:35 UTC
Wind
  • 190° at 12 KTS
  • Gusting to 22 KTS
Visibility
10 SM
Flight Rules
VFR
Cloud Levels
  • Clear skies
Temperature
C / 32°F
Dewpoint
-4°C / 25°F
Humidity
75%
Altimeter
30.26" Hg
Pressure
1024.72 hPa